sensor_id;sensor_type;location;lat;lon;timestamp;temperature;humidity
33955;DHT22;20233;50.804;7.126;2022-07-23T00:00:58;19.10;99.90
33955;DHT22;20233;50.804;7.126;2022-07-23T00:03:23;19.10;99.90
33955;DHT22;20233;50.804;7.126;2022-07-23T00:05:49;19.10;99.90
33955;DHT22;20233;50.804;7.126;2022-07-23T00:08:14;19.10;99.90
33955;DHT22;20233;50.804;7.126;2022-07-23T00:10:40;19.20;99.90
33955;DHT22;20233;50.804;7.126;2022-07-23T00:13:06;19.20;99.90
33955;DHT22;20233;50.804;7.126;2022-07-23T00:15:31;19.30;99.90
33955;DHT22;20233;50.804;7.126;2022-07-23T00:17:57;19.40;99.90
33955;DHT22;20233;50.804;7.126;2022-07-23T00:20:22;19.30;99.90
33955;DHT22;20233;50.804;7.126;2022-07-23T00:22:53;19.10;99.90
33955;DHT22;20233;50.804;7.126;2022-07-23T00:25:20;19.10;99.90
33955;DHT22;20233;50.804;7.126;2022-07-23T00:27:46;19.10;99.90
33955;DHT22;20233;50.804;7.126;2022-07-23T00:30:12;19.10;99.90
33955;DHT22;20233;50.804;7.126;2022-07-23T00:32:52;19.00;99.90
33955;DHT22;20233;50.804;7.126;2022-07-23T00:35:20;19.10;99.90
33955;DHT22;20233;50.804;7.126;2022-07-23T00:37:46;19.10;99.90
33955;DHT22;20233;50.804;7.126;2022-07-23T00:40:12;18.90;99.90
33955;DHT22;20233;50.804;7.126;2022-07-23T00:42:38;18.90;99.90
33955;DHT22;20233;50.804;7.126;2022-07-23T00:45:05;18.90;99.90
33955;DHT22;20233;50.804;7.126;2022-07-23T00:47:31;19.00;99.90
33955;DHT22;20233;50.804;7.126;2022-07-23T00:49:56;19.00;99.90
33955;DHT22;20233;50.804;7.126;2022-07-23T00:52:22;19.00;99.90
33955;DHT22;20233;50.804;7.126;2022-07-23T00:54:48;18.90;99.90
33955;DHT22;20233;50.804;7.126;2022-07-23T00:57:14;18.80;99.90
33955;DHT22;20233;50.804;7.126;2022-07-23T00:59:40;18.90;99.90
33955;DHT22;20233;50.804;7.126;2022-07-23T01:04:32;18.90;99.90
33955;DHT22;20233;50.804;7.126;2022-07-23T01:06:58;18.90;99.90
33955;DHT22;20233;50.804;7.126;2022-07-23T01:09:23;18.80;99.90
33955;DHT22;20233;50.804;7.126;2022-07-23T01:11:50;18.80;99.90
33955;DHT22;20233;50.804;7.126;2022-07-23T01:14:18;18.90;99.90
33955;DHT22;20233;50.804;7.126;2022-07-23T01:16:46;18.80;99.90
33955;DHT22;20233;50.804;7.126;2022-07-23T01:19:12;18.90;99.90
33955;DHT22;20233;50.804;7.126;2022-07-23T01:21:49;18.90;99.90
33955;DHT22;20233;50.804;7.126;2022-07-23T01:24:15;18.90;99.90
33955;DHT22;20233;50.804;7.126;2022-07-23T01:26:43;18.80;99.90
33955;DHT22;20233;50.804;7.126;2022-07-23T01:29:09;18.80;99.90
33955;DHT22;20233;50.804;7.126;2022-07-23T01:31:35;18.90;99.90
33955;DHT22;20233;50.804;7.126;2022-07-23T01:34:01;18.90;99.90
33955;DHT22;20233;50.804;7.126;2022-07-23T01:36:27;19.00;99.90
33955;DHT22;20233;50.804;7.126;2022-07-23T01:38:53;19.00;99.90
33955;DHT22;20233;50.804;7.126;2022-07-23T01:41:18;19.00;99.90
33955;DHT22;20233;50.804;7.126;2022-07-23T01:43:44;19.00;99.90
33955;DHT22;20233;50.804;7.126;2022-07-23T01:46:10;18.80;99.90
33955;DHT22;20233;50.804;7.126;2022-07-23T01:48:35;18.80;99.90
33955;DHT22;20233;50.804;7.126;2022-07-23T01:51:02;18.90;99.90
33955;DHT22;20233;50.804;7.126;2022-07-23T01:53:27;18.80;99.90
33955;DHT22;20233;50.804;7.126;2022-07-23T01:55:53;18.80;99.90
33955;DHT22;20233;50.804;7.126;2022-07-23T01:58:18;18.70;99.90
33955;DHT22;20233;50.804;7.126;2022-07-23T02:00:44;18.50;99.90
33955;DHT22;20233;50.804;7.126;2022-07-23T02:03:10;18.60;99.90
33955;DHT22;20233;50.804;7.126;2022-07-23T02:05:35;18.70;99.90
33955;DHT22;20233;50.804;7.126;2022-07-23T02:08:01;18.80;99.90
33955;DHT22;20233;50.804;7.126;2022-07-23T02:10:27;18.90;99.90
33955;DHT22;20233;50.804;7.126;2022-07-23T02:12:53;19.00;99.90
33955;DHT22;20233;50.804;7.126;2022-07-23T02:15:19;18.90;99.90
33955;DHT22;20233;50.804;7.126;2022-07-23T02:17:44;18.80;99.90
33955;DHT22;20233;50.804;7.126;2022-07-23T02:20:11;19.10;99.90
33955;DHT22;20233;50.804;7.126;2022-07-23T02:22:37;18.90;99.90
33955;DHT22;20233;50.804;7.126;2022-07-23T02:25:04;18.60;99.90
33955;DHT22;20233;50.804;7.126;2022-07-23T02:27:30;18.50;99.90
33955;DHT22;20233;50.804;7.126;2022-07-23T02:29:55;18.40;99.90
33955;DHT22;20233;50.804;7.126;2022-07-23T02:32:21;18.20;99.90
33955;DHT22;20233;50.804;7.126;2022-07-23T02:34:47;18.30;99.90
33955;DHT22;20233;50.804;7.126;2022-07-23T02:37:13;18.40;99.90
33955;DHT22;20233;50.804;7.126;2022-07-23T02:39:40;18.40;99.90
33955;DHT22;20233;50.804;7.126;2022-07-23T02:42:05;18.20;99.90
33955;DHT22;20233;50.804;7.126;2022-07-23T02:44:31;18.10;99.90
33955;DHT22;20233;50.804;7.126;2022-07-23T02:46:57;18.10;99.90
33955;DHT22;20233;50.804;7.126;2022-07-23T02:49:22;18.00;99.90
33955;DHT22;20233;50.804;7.126;2022-07-23T02:51:48;18.20;99.90
33955;DHT22;20233;50.804;7.126;2022-07-23T02:54:14;18.30;99.90
33955;DHT22;20233;50.804;7.126;2022-07-23T02:56:39;18.20;99.90
33955;DHT22;20233;50.804;7.126;2022-07-23T02:59:05;18.40;99.90
33955;DHT22;20233;50.804;7.126;2022-07-23T03:01:30;18.60;99.90
33955;DHT22;20233;50.804;7.126;2022-07-23T03:03:56;18.80;99.90
33955;DHT22;20233;50.804;7.126;2022-07-23T03:06:21;19.10;99.90
33955;DHT22;20233;50.804;7.126;2022-07-23T03:08:47;18.60;99.90
33955;DHT22;20233;50.804;7.126;2022-07-23T03:11:13;18.50;99.90
33955;DHT22;20233;50.804;7.126;2022-07-23T03:13:39;18.50;99.90
33955;DHT22;20233;50.804;7.126;2022-07-23T03:16:05;18.40;99.90
33955;DHT22;20233;50.804;7.126;2022-07-23T03:18:32;18.40;99.90
33955;DHT22;20233;50.804;7.126;2022-07-23T03:20:57;18.50;99.90
33955;DHT22;20233;50.804;7.126;2022-07-23T03:23:23;18.60;99.90
33955;DHT22;20233;50.804;7.126;2022-07-23T03:25:49;19.00;99.90
33955;DHT22;20233;50.804;7.126;2022-07-23T03:28:15;19.10;99.90
33955;DHT22;20233;50.804;7.126;2022-07-23T03:30:42;19.20;99.90
33955;DHT22;20233;50.804;7.126;2022-07-23T03:33:08;18.70;99.90
33955;DHT22;20233;50.804;7.126;2022-07-23T03:35:34;18.00;99.90
33955;DHT22;20233;50.804;7.126;2022-07-23T03:37:59;17.90;99.90
33955;DHT22;20233;50.804;7.126;2022-07-23T03:40:25;17.60;99.90
33955;DHT22;20233;50.804;7.126;2022-07-23T03:42:50;17.50;99.90
33955;DHT22;20233;50.804;7.126;2022-07-23T03:45:16;17.60;99.90
33955;DHT22;20233;50.804;7.126;2022-07-23T03:47:42;17.80;99.90
33955;DHT22;20233;50.804;7.126;2022-07-23T03:50:08;17.70;99.90
33955;DHT22;20233;50.804;7.126;2022-07-23T03:52:34;17.60;99.90
33955;DHT22;20233;50.804;7.126;2022-07-23T03:55:00;17.60;99.90
33955;DHT22;20233;50.804;7.126;2022-07-23T03:57:26;17.70;99.90
33955;DHT22;20233;50.804;7.126;2022-07-23T03:59:51;17.80;99.90
33955;DHT22;20233;50.804;7.126;2022-07-23T04:02:17;18.00;99.90
33955;DHT22;20233;50.804;7.126;2022-07-23T04:04:42;18.30;99.90
33955;DHT22;20233;50.804;7.126;2022-07-23T04:07:08;18.40;99.90
33955;DHT22;20233;50.804;7.126;2022-07-23T04:09:33;18.40;99.90
33955;DHT22;20233;50.804;7.126;2022-07-23T04:11:59;18.70;99.90
33955;DHT22;20233;50.804;7.126;2022-07-23T04:14:25;18.40;99.90
33955;DHT22;20233;50.804;7.126;2022-07-23T04:16:50;18.30;99.90
33955;DHT22;20233;50.804;7.126;2022-07-23T04:19:16;18.30;99.90
33955;DHT22;20233;50.804;7.126;2022-07-23T04:21:42;18.20;99.90
33955;DHT22;20233;50.804;7.126;2022-07-23T04:24:07;17.70;99.90
33955;DHT22;20233;50.804;7.126;2022-07-23T04:26:33;17.50;99.90
33955;DHT22;20233;50.804;7.126;2022-07-23T04:28:59;17.60;99.90
33955;DHT22;20233;50.804;7.126;2022-07-23T04:31:24;17.30;99.90
33955;DHT22;20233;50.804;7.126;2022-07-23T04:33:50;17.50;99.90
33955;DHT22;20233;50.804;7.126;2022-07-23T04:36:15;17.50;99.90
33955;DHT22;20233;50.804;7.126;2022-07-23T04:38:41;17.20;99.90
33955;DHT22;20233;50.804;7.126;2022-07-23T04:41:07;17.10;99.90
33955;DHT22;20233;50.804;7.126;2022-07-23T04:43:33;17.10;99.90
33955;DHT22;20233;50.804;7.126;2022-07-23T04:45:58;17.50;99.90
33955;DHT22;20233;50.804;7.126;2022-07-23T04:48:24;17.50;99.90
33955;DHT22;20233;50.804;7.126;2022-07-23T04:50:49;17.30;99.90
33955;DHT22;20233;50.804;7.126;2022-07-23T04:53:15;17.50;99.90
33955;DHT22;20233;50.804;7.126;2022-07-23T04:55:41;17.80;99.90
33955;DHT22;20233;50.804;7.126;2022-07-23T04:58:06;18.10;99.90
33955;DHT22;20233;50.804;7.126;2022-07-23T05:00:32;18.40;99.90
33955;DHT22;20233;50.804;7.126;2022-07-23T05:02:57;18.60;99.90
33955;DHT22;20233;50.804;7.126;2022-07-23T05:05:23;18.80;99.90
33955;DHT22;20233;50.804;7.126;2022-07-23T05:07:48;18.50;99.90
33955;DHT22;20233;50.804;7.126;2022-07-23T05:10:14;18.80;99.90
33955;DHT22;20233;50.804;7.126;2022-07-23T05:12:40;17.80;99.90
33955;DHT22;20233;50.804;7.126;2022-07-23T05:15:05;18.20;99.90
33955;DHT22;20233;50.804;7.126;2022-07-23T05:17:31;17.90;99.90
33955;DHT22;20233;50.804;7.126;2022-07-23T05:19:57;17.60;99.90
33955;DHT22;20233;50.804;7.126;2022-07-23T05:22:22;17.30;99.90
33955;DHT22;20233;50.804;7.126;2022-07-23T05:24:48;17.50;99.90
33955;DHT22;20233;50.804;7.126;2022-07-23T05:27:14;17.90;99.90
33955;DHT22;20233;50.804;7.126;2022-07-23T05:29:39;17.80;99.90
33955;DHT22;20233;50.804;7.126;2022-07-23T05:32:05;18.00;99.90
33955;DHT22;20233;50.804;7.126;2022-07-23T05:34:30;18.10;99.90
33955;DHT22;20233;50.804;7.126;2022-07-23T05:36:56;17.60;99.90
33955;DHT22;20233;50.804;7.126;2022-07-23T05:39:22;17.50;99.90
33955;DHT22;20233;50.804;7.126;2022-07-23T05:41:47;17.40;99.90
33955;DHT22;20233;50.804;7.126;2022-07-23T05:44:13;17.40;99.90
33955;DHT22;20233;50.804;7.126;2022-07-23T05:46:39;17.50;99.90
33955;DHT22;20233;50.804;7.126;2022-07-23T05:49:04;17.70;99.90
33955;DHT22;20233;50.804;7.126;2022-07-23T05:51:30;18.00;99.90
33955;DHT22;20233;50.804;7.126;2022-07-23T05:53:55;18.10;99.90
33955;DHT22;20233;50.804;7.126;2022-07-23T05:56:21;18.10;99.90
33955;DHT22;20233;50.804;7.126;2022-07-23T05:58:47;18.10;99.90
33955;DHT22;20233;50.804;7.126;2022-07-23T06:01:12;18.20;99.90
33955;DHT22;20233;50.804;7.126;2022-07-23T06:03:39;18.20;99.90
33955;DHT22;20233;50.804;7.126;2022-07-23T06:06:05;18.10;99.90
33955;DHT22;20233;50.804;7.126;2022-07-23T06:08:31;18.10;99.90
33955;DHT22;20233;50.804;7.126;2022-07-23T06:10:56;18.00;99.90
33955;DHT22;20233;50.804;7.126;2022-07-23T06:13:22;17.90;99.90
33955;DHT22;20233;50.804;7.126;2022-07-23T06:15:47;17.80;99.90
33955;DHT22;20233;50.804;7.126;2022-07-23T06:18:14;17.70;99.90
33955;DHT22;20233;50.804;7.126;2022-07-23T06:20:39;17.60;99.90
33955;DHT22;20233;50.804;7.126;2022-07-23T06:23:05;17.70;99.90
33955;DHT22;20233;50.804;7.126;2022-07-23T06:25:31;17.60;99.90
33955;DHT22;20233;50.804;7.126;2022-07-23T06:27:56;17.60;99.90
33955;DHT22;20233;50.804;7.126;2022-07-23T06:30:22;17.70;99.90
33955;DHT22;20233;50.804;7.126;2022-07-23T06:32:48;17.80;99.90
33955;DHT22;20233;50.804;7.126;2022-07-23T06:35:15;17.90;99.90
33955;DHT22;20233;50.804;7.126;2022-07-23T06:37:40;18.10;99.90
33955;DHT22;20233;50.804;7.126;2022-07-23T06:40:06;18.10;99.90
33955;DHT22;20233;50.804;7.126;2022-07-23T06:42:32;18.00;99.90
33955;DHT22;20233;50.804;7.126;2022-07-23T06:44:58;18.00;99.90
33955;DHT22;20233;50.804;7.126;2022-07-23T06:47:23;18.30;99.90
33955;DHT22;20233;50.804;7.126;2022-07-23T06:49:49;18.00;99.90
33955;DHT22;20233;50.804;7.126;2022-07-23T06:52:14;18.10;99.90
33955;DHT22;20233;50.804;7.126;2022-07-23T06:54:40;18.30;99.90
33955;DHT22;20233;50.804;7.126;2022-07-23T06:57:06;18.60;99.90
33955;DHT22;20233;50.804;7.126;2022-07-23T06:59:31;18.80;99.90
33955;DHT22;20233;50.804;7.126;2022-07-23T07:01:58;18.70;99.90
33955;DHT22;20233;50.804;7.126;2022-07-23T07:04:24;18.70;99.90
33955;DHT22;20233;50.804;7.126;2022-07-23T07:06:49;18.70;99.90
33955;DHT22;20233;50.804;7.126;2022-07-23T07:09:15;19.00;99.90
33955;DHT22;20233;50.804;7.126;2022-07-23T07:11:41;18.90;99.90
33955;DHT22;20233;50.804;7.126;2022-07-23T07:14:06;18.90;99.90
33955;DHT22;20233;50.804;7.126;2022-07-23T07:16:35;18.90;99.90
33955;DHT22;20233;50.804;7.126;2022-07-23T07:19:00;19.10;99.90
33955;DHT22;20233;50.804;7.126;2022-07-23T07:21:26;19.30;99.90
33955;DHT22;20233;50.804;7.126;2022-07-23T07:23:52;19.30;99.90
33955;DHT22;20233;50.804;7.126;2022-07-23T07:26:17;19.50;99.90
33955;DHT22;20233;50.804;7.126;2022-07-23T07:28:43;19.70;99.90
33955;DHT22;20233;50.804;7.126;2022-07-23T07:31:08;19.70;99.90
33955;DHT22;20233;50.804;7.126;2022-07-23T07:33:34;19.40;99.90
33955;DHT22;20233;50.804;7.126;2022-07-23T07:36:00;19.80;99.90
33955;DHT22;20233;50.804;7.126;2022-07-23T07:38:26;20.00;99.90
33955;DHT22;20233;50.804;7.126;2022-07-23T07:40:51;19.70;99.90
33955;DHT22;20233;50.804;7.126;2022-07-23T07:43:17;20.00;99.90
33955;DHT22;20233;50.804;7.126;2022-07-23T07:45:42;20.00;99.90
33955;DHT22;20233;50.804;7.126;2022-07-23T07:48:08;20.00;99.90
33955;DHT22;20233;50.804;7.126;2022-07-23T07:50:33;20.10;99.90
33955;DHT22;20233;50.804;7.126;2022-07-23T07:52:59;20.30;99.90
33955;DHT22;20233;50.804;7.126;2022-07-23T07:55:25;20.00;99.90
33955;DHT22;20233;50.804;7.126;2022-07-23T07:57:50;20.20;99.90
33955;DHT22;20233;50.804;7.126;2022-07-23T08:00:16;20.40;99.90
33955;DHT22;20233;50.804;7.126;2022-07-23T08:02:50;20.60;99.90
33955;DHT22;20233;50.804;7.126;2022-07-23T08:05:23;20.50;99.90
33955;DHT22;20233;50.804;7.126;2022-07-23T08:07:49;20.70;99.90
33955;DHT22;20233;50.804;7.126;2022-07-23T08:12:46;20.30;99.90
33955;DHT22;20233;50.804;7.126;2022-07-23T08:15:13;20.00;99.90
33955;DHT22;20233;50.804;7.126;2022-07-23T08:17:41;20.20;99.90
33955;DHT22;20233;50.804;7.126;2022-07-23T08:20:09;20.30;99.90
33955;DHT22;20233;50.804;7.126;2022-07-23T08:22:48;20.30;99.90
33955;DHT22;20233;50.804;7.126;2022-07-23T08:25:22;20.10;99.90
33955;DHT22;20233;50.804;7.126;2022-07-23T08:27:49;20.60;99.90
33955;DHT22;20233;50.804;7.126;2022-07-23T08:30:15;21.00;99.90
33955;DHT22;20233;50.804;7.126;2022-07-23T08:32:50;21.20;99.90
33955;DHT22;20233;50.804;7.126;2022-07-23T08:35:16;21.00;99.90
33955;DHT22;20233;50.804;7.126;2022-07-23T08:37:42;21.20;99.90
33955;DHT22;20233;50.804;7.126;2022-07-23T08:40:08;20.80;99.90
33955;DHT22;20233;50.804;7.126;2022-07-23T08:42:34;20.30;99.90
33955;DHT22;20233;50.804;7.126;2022-07-23T08:45:03;20.80;99.90
33955;DHT22;20233;50.804;7.126;2022-07-23T08:47:29;20.80;99.90
33955;DHT22;20233;50.804;7.126;2022-07-23T08:49:59;21.30;99.90
33955;DHT22;20233;50.804;7.126;2022-07-23T08:52:25;21.20;99.90
33955;DHT22;20233;50.804;7.126;2022-07-23T08:54:51;21.20;99.90
33955;DHT22;20233;50.804;7.126;2022-07-23T08:57:18;21.40;99.90
33955;DHT22;20233;50.804;7.126;2022-07-23T08:59:44;21.50;99.90
33955;DHT22;20233;50.804;7.126;2022-07-23T09:02:09;21.30;99.90
33955;DHT22;20233;50.804;7.126;2022-07-23T09:04:35;21.40;99.90
33955;DHT22;20233;50.804;7.126;2022-07-23T09:07:02;21.60;99.90
33955;DHT22;20233;50.804;7.126;2022-07-23T09:09:27;21.60;99.90
33955;DHT22;20233;50.804;7.126;2022-07-23T09:12:06;21.90;99.90
33955;DHT22;20233;50.804;7.126;2022-07-23T09:14:40;21.80;99.90
33955;DHT22;20233;50.804;7.126;2022-07-23T09:17:15;21.70;99.90
33955;DHT22;20233;50.804;7.126;2022-07-23T09:19:41;21.60;99.90
33955;DHT22;20233;50.804;7.126;2022-07-23T09:22:24;21.80;99.90
33955;DHT22;20233;50.804;7.126;2022-07-23T09:25:15;22.10;99.90
33955;DHT22;20233;50.804;7.126;2022-07-23T09:27:57;22.10;99.90
33955;DHT22;20233;50.804;7.126;2022-07-23T09:30:29;22.40;99.90
33955;DHT22;20233;50.804;7.126;2022-07-23T09:33:05;21.80;99.90
33955;DHT22;20233;50.804;7.126;2022-07-23T09:35:54;21.40;99.90
33955;DHT22;20233;50.804;7.126;2022-07-23T09:38:23;21.80;99.90
33955;DHT22;20233;50.804;7.126;2022-07-23T09:41:09;22.00;99.90
33955;DHT22;20233;50.804;7.126;2022-07-23T09:43:35;22.20;99.90
33955;DHT22;20233;50.804;7.126;2022-07-23T09:46:20;22.00;99.90
33955;DHT22;20233;50.804;7.126;2022-07-23T09:48:47;22.40;99.90
33955;DHT22;20233;50.804;7.126;2022-07-23T09:51:13;22.50;99.90
33955;DHT22;20233;50.804;7.126;2022-07-23T09:53:45;22.40;99.90
33955;DHT22;20233;50.804;7.126;2022-07-23T09:56:13;22.30;99.90
33955;DHT22;20233;50.804;7.126;2022-07-23T09:58:40;22.50;99.90
33955;DHT22;20233;50.804;7.126;2022-07-23T10:01:12;22.90;99.90
33955;DHT22;20233;50.804;7.126;2022-07-23T10:03:39;23.20;99.90
33955;DHT22;20233;50.804;7.126;2022-07-23T10:06:05;23.10;99.90
33955;DHT22;20233;50.804;7.126;2022-07-23T10:08:33;23.20;99.90
33955;DHT22;20233;50.804;7.126;2022-07-23T10:11:00;23.00;99.90
33955;DHT22;20233;50.804;7.126;2022-07-23T10:13:27;23.30;99.90
33955;DHT22;20233;50.804;7.126;2022-07-23T10:16:12;23.50;99.90
33955;DHT22;20233;50.804;7.126;2022-07-23T10:18:38;23.10;99.90
33955;DHT22;20233;50.804;7.126;2022-07-23T10:21:06;22.90;99.90
33955;DHT22;20233;50.804;7.126;2022-07-23T10:26:15;23.40;99.90
33955;DHT22;20233;50.804;7.126;2022-07-23T10:29:12;23.70;99.90
33955;DHT22;20233;50.804;7.126;2022-07-23T10:31:56;24.00;99.90
33955;DHT22;20233;50.804;7.126;2022-07-23T10:34:33;24.20;99.90
33955;DHT22;20233;50.804;7.126;2022-07-23T10:37:12;24.00;99.90
33955;DHT22;20233;50.804;7.126;2022-07-23T10:39:41;23.70;99.90
33955;DHT22;20233;50.804;7.126;2022-07-23T10:42:15;24.00;99.90
33955;DHT22;20233;50.804;7.126;2022-07-23T10:44:43;24.20;99.90
33955;DHT22;20233;50.804;7.126;2022-07-23T10:47:11;24.50;99.90
33955;DHT22;20233;50.804;7.126;2022-07-23T10:50:19;24.70;99.90
33955;DHT22;20233;50.804;7.126;2022-07-23T10:57:56;24.20;99.90
33955;DHT22;20233;50.804;7.126;2022-07-23T11:00:23;24.00;99.90
33955;DHT22;20233;50.804;7.126;2022-07-23T11:02:51;24.30;99.90
33955;DHT22;20233;50.804;7.126;2022-07-23T11:05:22;24.50;99.90
33955;DHT22;20233;50.804;7.126;2022-07-23T11:10:54;24.60;99.90
33955;DHT22;20233;50.804;7.126;2022-07-23T11:23:57;24.50;99.90
33955;DHT22;20233;50.804;7.126;2022-07-23T11:31:57;24.80;99.90
33955;DHT22;20233;50.804;7.126;2022-07-23T11:36:58;24.60;99.90
33955;DHT22;20233;50.804;7.126;2022-07-23T11:39:26;24.70;99.90
33955;DHT22;20233;50.804;7.126;2022-07-23T11:41:52;24.80;99.90
33955;DHT22;20233;50.804;7.126;2022-07-23T11:44:38;24.60;99.90
33955;DHT22;20233;50.804;7.126;2022-07-23T11:47:07;24.90;99.90
33955;DHT22;20233;50.804;7.126;2022-07-23T11:49:33;24.60;99.90
33955;DHT22;20233;50.804;7.126;2022-07-23T11:52:11;24.70;99.90
33955;DHT22;20233;50.804;7.126;2022-07-23T11:57:15;24.50;99.90
33955;DHT22;20233;50.804;7.126;2022-07-23T11:59:41;24.90;99.90
33955;DHT22;20233;50.804;7.126;2022-07-23T12:02:07;25.20;99.90
33955;DHT22;20233;50.804;7.126;2022-07-23T12:04:44;25.60;99.90
33955;DHT22;20233;50.804;7.126;2022-07-23T12:07:37;25.40;99.90
33955;DHT22;20233;50.804;7.126;2022-07-23T12:12:44;25.00;99.90
33955;DHT22;20233;50.804;7.126;2022-07-23T12:15:14;25.40;99.90
33955;DHT22;20233;50.804;7.126;2022-07-23T12:17:43;25.70;99.90
33955;DHT22;20233;50.804;7.126;2022-07-23T12:20:12;25.80;99.90
33955;DHT22;20233;50.804;7.126;2022-07-23T12:22:40;26.10;99.90
33955;DHT22;20233;50.804;7.126;2022-07-23T12:25:15;26.40;99.90
33955;DHT22;20233;50.804;7.126;2022-07-23T12:27:41;26.50;99.90
33955;DHT22;20233;50.804;7.126;2022-07-23T12:32:46;26.20;99.90
33955;DHT22;20233;50.804;7.126;2022-07-23T12:35:12;26.40;99.90
33955;DHT22;20233;50.804;7.126;2022-07-23T12:37:40;26.80;99.90
33955;DHT22;20233;50.804;7.126;2022-07-23T12:40:20;25.90;99.90
33955;DHT22;20233;50.804;7.126;2022-07-23T12:42:48;25.60;99.90
33955;DHT22;20233;50.804;7.126;2022-07-23T12:45:14;25.30;99.90
33955;DHT22;20233;50.804;7.126;2022-07-23T12:48:05;25.30;99.90
33955;DHT22;20233;50.804;7.126;2022-07-23T12:50:42;25.50;99.90
33955;DHT22;20233;50.804;7.126;2022-07-23T12:53:14;25.10;99.90
33955;DHT22;20233;50.804;7.126;2022-07-23T12:55:40;25.50;99.90
33955;DHT22;20233;50.804;7.126;2022-07-23T12:58:13;25.90;99.90
33955;DHT22;20233;50.804;7.126;2022-07-23T13:00:59;26.30;99.90
33955;DHT22;20233;50.804;7.126;2022-07-23T13:05:53;27.00;99.90
33955;DHT22;20233;50.804;7.126;2022-07-23T13:08:20;26.30;99.90
33955;DHT22;20233;50.804;7.126;2022-07-23T13:10:46;26.30;99.90
33955;DHT22;20233;50.804;7.126;2022-07-23T13:13:18;26.60;99.90
33955;DHT22;20233;50.804;7.126;2022-07-23T13:15:44;26.80;99.90
33955;DHT22;20233;50.804;7.126;2022-07-23T13:20:37;26.10;99.90
33955;DHT22;20233;50.804;7.126;2022-07-23T13:23:05;26.00;99.90
33955;DHT22;20233;50.804;7.126;2022-07-23T13:25:31;26.40;99.90
33955;DHT22;20233;50.804;7.126;2022-07-23T13:27:57;26.70;99.90
33955;DHT22;20233;50.804;7.126;2022-07-23T13:30:22;27.00;99.90
33955;DHT22;20233;50.804;7.126;2022-07-23T13:32:48;27.00;99.90
33955;DHT22;20233;50.804;7.126;2022-07-23T13:35:14;27.40;99.90
33955;DHT22;20233;50.804;7.126;2022-07-23T13:37:40;27.00;99.90
33955;DHT22;20233;50.804;7.126;2022-07-23T13:40:06;27.10;99.90
33955;DHT22;20233;50.804;7.126;2022-07-23T13:42:32;26.60;99.90
33955;DHT22;20233;50.804;7.126;2022-07-23T13:44:58;26.60;99.90
33955;DHT22;20233;50.804;7.126;2022-07-23T13:47:23;26.10;99.90
33955;DHT22;20233;50.804;7.126;2022-07-23T13:49:49;26.60;99.90
33955;DHT22;20233;50.804;7.126;2022-07-23T13:52:15;27.00;99.90
33955;DHT22;20233;50.804;7.126;2022-07-23T13:54:40;26.20;99.90
33955;DHT22;20233;50.804;7.126;2022-07-23T13:57:06;26.20;99.90
33955;DHT22;20233;50.804;7.126;2022-07-23T13:59:33;26.50;99.90
33955;DHT22;20233;50.804;7.126;2022-07-23T14:01:58;26.10;99.90
33955;DHT22;20233;50.804;7.126;2022-07-23T14:04:24;26.30;99.90
33955;DHT22;20233;50.804;7.126;2022-07-23T14:06:50;26.60;99.90
33955;DHT22;20233;50.804;7.126;2022-07-23T14:09:15;26.50;99.90
33955;DHT22;20233;50.804;7.126;2022-07-23T14:11:41;26.30;99.90
33955;DHT22;20233;50.804;7.126;2022-07-23T14:14:06;26.20;99.90
33955;DHT22;20233;50.804;7.126;2022-07-23T14:16:32;25.90;99.90
33955;DHT22;20233;50.804;7.126;2022-07-23T14:18:58;25.90;99.90
33955;DHT22;20233;50.804;7.126;2022-07-23T14:21:23;26.10;99.90
33955;DHT22;20233;50.804;7.126;2022-07-23T14:23:49;26.60;99.90
33955;DHT22;20233;50.804;7.126;2022-07-23T14:26:14;26.40;99.90
33955;DHT22;20233;50.804;7.126;2022-07-23T14:28:40;25.90;99.90
33955;DHT22;20233;50.804;7.126;2022-07-23T14:31:06;26.20;99.90
33955;DHT22;20233;50.804;7.126;2022-07-23T14:33:31;26.40;99.90
33955;DHT22;20233;50.804;7.126;2022-07-23T14:35:57;26.00;99.90
33955;DHT22;20233;50.804;7.126;2022-07-23T14:38:24;26.50;99.90
33955;DHT22;20233;50.804;7.126;2022-07-23T14:40:49;26.30;99.90
33955;DHT22;20233;50.804;7.126;2022-07-23T14:43:15;26.40;99.90
33955;DHT22;20233;50.804;7.126;2022-07-23T14:45:41;26.40;99.90
33955;DHT22;20233;50.804;7.126;2022-07-23T14:48:06;26.60;99.90
33955;DHT22;20233;50.804;7.126;2022-07-23T14:50:32;26.70;99.90
33955;DHT22;20233;50.804;7.126;2022-07-23T14:52:58;27.10;99.90
33955;DHT22;20233;50.804;7.126;2022-07-23T14:55:23;27.00;99.90
33955;DHT22;20233;50.804;7.126;2022-07-23T14:57:49;27.00;99.90
33955;DHT22;20233;50.804;7.126;2022-07-23T15:00:15;27.10;99.90
33955;DHT22;20233;50.804;7.126;2022-07-23T15:02:40;26.60;99.90
33955;DHT22;20233;50.804;7.126;2022-07-23T15:05:06;26.70;99.90
33955;DHT22;20233;50.804;7.126;2022-07-23T15:07:32;26.70;99.90
33955;DHT22;20233;50.804;7.126;2022-07-23T15:09:58;26.20;99.90
33955;DHT22;20233;50.804;7.126;2022-07-23T15:12:24;26.40;99.90
33955;DHT22;20233;50.804;7.126;2022-07-23T15:14:50;27.00;99.90
33955;DHT22;20233;50.804;7.126;2022-07-23T15:17:15;27.40;99.90
33955;DHT22;20233;50.804;7.126;2022-07-23T15:19:41;27.10;99.90
33955;DHT22;20233;50.804;7.126;2022-07-23T15:22:07;27.40;99.90
33955;DHT22;20233;50.804;7.126;2022-07-23T15:24:33;27.20;99.90
33955;DHT22;20233;50.804;7.126;2022-07-23T15:26:59;27.20;99.90
33955;DHT22;20233;50.804;7.126;2022-07-23T15:29:24;26.70;99.90
33955;DHT22;20233;50.804;7.126;2022-07-23T15:31:50;26.50;99.90
33955;DHT22;20233;50.804;7.126;2022-07-23T15:34:16;26.80;99.90
33955;DHT22;20233;50.804;7.126;2022-07-23T15:36:42;27.20;99.90
33955;DHT22;20233;50.804;7.126;2022-07-23T15:39:07;27.40;99.90
33955;DHT22;20233;50.804;7.126;2022-07-23T15:41:33;27.10;99.90
33955;DHT22;20233;50.804;7.126;2022-07-23T15:43:59;26.80;99.90
33955;DHT22;20233;50.804;7.126;2022-07-23T15:46:25;26.70;99.90
33955;DHT22;20233;50.804;7.126;2022-07-23T15:48:51;26.60;99.90
33955;DHT22;20233;50.804;7.126;2022-07-23T15:51:17;26.90;99.90
33955;DHT22;20233;50.804;7.126;2022-07-23T15:53:42;26.80;99.90
33955;DHT22;20233;50.804;7.126;2022-07-23T15:56:09;26.80;99.90
33955;DHT22;20233;50.804;7.126;2022-07-23T15:58:35;26.90;99.90
33955;DHT22;20233;50.804;7.126;2022-07-23T16:01:01;26.70;99.90
33955;DHT22;20233;50.804;7.126;2022-07-23T16:03:31;26.80;99.90
33955;DHT22;20233;50.804;7.126;2022-07-23T16:05:57;26.80;99.90
33955;DHT22;20233;50.804;7.126;2022-07-23T16:08:22;26.70;99.90
33955;DHT22;20233;50.804;7.126;2022-07-23T16:10:48;26.60;99.90
33955;DHT22;20233;50.804;7.126;2022-07-23T16:13:14;27.00;99.90
33955;DHT22;20233;50.804;7.126;2022-07-23T16:15:40;27.00;99.90
33955;DHT22;20233;50.804;7.126;2022-07-23T16:18:07;27.10;99.90